Portada
METAR-TAF:

METAR-TAF

Aeroports :

Dar es Salaam, Tanzània

latitud: 06-52S, longitud: 039-12E, altitud: 55 m

Observació

L'informe es va fer fa 1 hora i 25 minuts, a les 21:00 UTC
Vent calma
Temperatura 24°C
Humitat 94%
Pressió 1016 hPa
Visibilitat 10 km o més
Escasses núvols a una alçada de 1600 ft
Escasses núvols a una alçada de 1700 ft, Cumulonimbus.

METAR: HTDA 232100Z 00000KT 9999 FEW016 FEW017CB 24/23 Q1016 NOSIG

Hora: 01:25 (22:25 UTC)

Pronòstic

L'informe es va fer fa 5 hores i 25 minuts, a les 17:00 UTC
Pronòstic vàlid del 23 a les 18 UTC al 24 a les 24 UTC
Vent 10 kt del Sud
Visibilitat 10 km o més
Núvols disperses a una alçada de 1800 ft
Escasses núvols a una alçada de 1900 ft, Cumulonimbus.

TAF: HTDA 231700Z 2318/2424 17010KT 9999 SCT018 FEW019CB

Observacions i pronòstics meteorològics de més de 4000 aeroports (METAR i TAF).

Les estacions disponibles són els punts grocs i vermells al mapa.

Posi el ratolí al punt desitjat per veure el nom de l'estació.

Feu clic per veure les observacions i els pronòstics meteorològics.

Per canviar el mapa: feu clic els botons verds amb una creu de color negre per apropar; al botó verd amb un guió per allunyar la imatge; o en les fletxes verdes per a mapes adjacents.


METAR-TAF: